PWSweather.com
Personal Weather Stations
Station Observations
SANDHURSTWX
SandhurstGB

SandhurstGB

Lat: 51.3522, Lon: -0.7739

Elevation: 272.3

Station Type: Davis VP2

www.sandhurstweather.org.uk

High Low Average
Temperature 49.9°F9.9°F 36.4°F2.4°F 43.8°F6.6°F
Dew Point 48.8°F9.3°F 34.6°F1.4°F 41.5°F5.3°F
Winds 11.5 mph -18.5 mph - Calm Calm 4.6 mph 7.4 mph
Wind Gusts 17.3 mph27.8 mph -- 7.4 mph11.9 mph
Humidity 97% 80% 92%
Pressure 30.11 in1019.60 in 29.75 in1007.50 in -
Precipitation 0.22 in5.60 in - -
Hour Temp Dew Point Humidity Winds Wind Gusts Pressure Precip Precip Rate Daily Precip Total
12:00 AM 49.9°F9.9°C 48.8°F9.3°C 96% 4.6 mph S7.4 kmh S 8.1 mph13.0 kmh 29.80 in1009.1 mb - 0.00 in0.0 mm 0.00 in0.0 mm
01:00 AM 49.4°F9.7°C 48.3°F9.1°C 96% 4.6 mph S7.4 kmh S 5.8 mph9.3 kmh 29.78 in1008.5 mb - 0.00 in0.0 mm 0.00 in0.0 mm
02:00 AM 49.4°F9.7°C 48.3°F9.1°C 96% 4.6 mph S7.4 kmh S 5.8 mph9.3 kmh 29.78 in1008.5 mb - 0.00 in0.0 mm 0.00 in0.0 mm
03:00 AM 49.0°F9.4°C 47.9°F8.8°C 96% 5.8 mph S9.3 kmh S 8.1 mph13.0 kmh 29.77 in1008.1 mb - 0.00 in0.0 mm 0.00 in0.0 mm
04:00 AM 48.6°F9.2°C 47.5°F8.6°C 96% 6.9 mph SSE11.1 kmh SSE 9.2 mph14.8 kmh 29.76 in1007.8 mb - 0.00 in0.0 mm 0.00 in0.0 mm
05:00 AM 48.4°F9.1°C 47.0°F8.3°C 95% 3.5 mph SW5.6 kmh SW 4.6 mph7.4 kmh 29.75 in1007.5 mb - 0.04 in1.0 mm 0.04 in1.0 mm
06:00 AM 45.0°F7.2°C 43.9°F6.6°C 96% 4.6 mph SSE7.4 kmh SSE 9.2 mph14.8 kmh 29.77 in1008.1 mb - 0.17 in4.3 mm 0.21 in5.3 mm
07:00 AM 44.8°F7.1°C 44.0°F6.7°C 97% 5.8 mph S9.3 kmh S 6.9 mph11.1 kmh 29.76 in1007.8 mb - 0.01 in0.3 mm 0.21 in5.3 mm
08:00 AM 44.9°F7.2°C 43.9°F6.6°C 96% 6.9 mph S11.1 kmh S 12.7 mph20.4 kmh 29.77 in1008.1 mb - 0.00 in0.0 mm 0.21 in5.3 mm
09:00 AM 44.6°F7.0°C 43.8°F6.6°C 97% 4.6 mph S7.4 kmh S 4.6 mph7.4 kmh 29.78 in1008.5 mb - 0.00 in0.0 mm 0.21 in5.3 mm
10:00 AM 45.2°F7.3°C 43.6°F6.4°C 94% 4.6 mph SSW7.4 kmh SSW 8.1 mph13.0 kmh 29.79 in1008.8 mb - 0.00 in0.0 mm 0.21 in5.3 mm
11:00 AM 45.4°F7.4°C 42.6°F5.9°C 90% 4.6 mph WSW7.4 kmh WSW 12.7 mph20.4 kmh 29.83 in1010.2 mb - 0.00 in0.0 mm 0.21 in5.3 mm
12:00 PM 44.5°F6.9°C 40.2°F4.6°C 85% 11.5 mph WSW18.5 kmh WSW 17.3 mph27.8 kmh 29.88 in1011.9 mb - 0.00 in0.0 mm 0.21 in5.3 mm
01:00 PM 44.0°F6.7°C 38.9°F3.8°C 82% 9.2 mph WNW14.8 kmh WNW 13.8 mph22.2 kmh 29.91 in1012.9 mb - 0.00 in0.0 mm 0.21 in5.3 mm
02:00 PM 44.9°F7.2°C 39.1°F3.9°C 80% 8.1 mph WSW13.0 kmh WSW 11.5 mph18.5 kmh 29.94 in1013.9 mb - 0.00 in0.0 mm 0.21 in5.3 mm
03:00 PM 43.3°F6.3°C 38.2°F3.4°C 82% 6.9 mph WSW11.1 kmh WSW 11.5 mph18.5 kmh 29.97 in1014.9 mb - 0.00 in0.0 mm 0.21 in5.3 mm
04:00 PM 42.6°F5.9°C 38.7°F3.7°C 86% 3.5 mph W5.6 kmh W 11.5 mph18.5 kmh 30.00 in1015.9 mb - 0.00 in0.0 mm 0.21 in5.3 mm
05:00 PM 41.3°F5.2°C 37.7°F3.2°C 87% 3.5 mph WSW5.6 kmh WSW 5.8 mph9.3 kmh 30.02 in1016.6 mb - 0.00 in0.0 mm 0.21 in5.3 mm
06:00 PM 39.6°F4.2°C 36.9°F2.7°C 90% Calm Calm -- 30.03 in1016.9 mb - 0.00 in0.0 mm 0.21 in5.3 mm
07:00 PM 37.9°F3.3°C 35.8°F2.1°C 92% Calm Calm -- 30.05 in1017.6 mb - 0.00 in0.0 mm 0.21 in5.3 mm
08:00 PM 37.8°F3.2°C 35.4°F1.9°C 91% 3.5 mph SSW5.6 kmh SSW 5.8 mph9.3 kmh 30.05 in1017.6 mb - 0.00 in0.0 mm 0.21 in5.3 mm
09:00 PM 37.1°F2.8°C 35.0°F1.7°C 92% 1.2 mph SSW1.9 kmh SSW 1.2 mph1.9 kmh 30.06 in1017.9 mb - 0.00 in0.0 mm 0.21 in5.3 mm
10:00 PM 36.4°F2.4°C 34.6°F1.4°C 93% 1.2 mph SW1.9 kmh SW 2.3 mph3.7 kmh 30.09 in1019.0 mb - 0.00 in0.0 mm 0.21 in5.3 mm
11:00 PM 36.7°F2.6°C 34.9°F1.6°C 93% 1.2 mph WNW1.9 kmh WNW 1.2 mph1.9 kmh 30.11 in1019.6 mb - 0.00 in0.0 mm 0.21 in5.3 mm